Flight Track Log - Related Links

Times and Time Zones

All times are in EDT time to prevent confusion due to time zone crossing. See the TAM8008 flight status page for this flight to view local times or setup timezone preferences in your user account.

Time Position Orientation Groundspeed Altitude Reporting Facility
EDT Latitude Longitude Course Direction KTS MPH feet Rate Location/Type
Sat 05:40:16 PM -23.4310 -46.4840 163° South 9 10  Level FlightAware ADS-B
Sat 05:40:56 PM -23.4320 -46.4840 180° South 5 6 607 Level FlightAware ADS-B
Sat 05:41:21 PM -23.4330 -46.4840 180° South 5 6 725 Level FlightAware ADS-B
Sat 05:42:36 PM -23.4340 -46.4830 137° Southeast 12 14 824 Level FlightAware ADS-B
Sat 05:44:01 PM -23.4330 -46.4770 80° East 105 121 1,402 Level FlightAware ADS-B
Sat 05:44:23 PM -23.4290 -46.4620 74° East 162 186 2,500 3,600 Climbing FlightAware ADS-B
Sat 05:45:11 PM -23.4340 -46.4250 98° East 197 227 4,200 2,276 Climbing FlightAware ADS-B
Sat 05:45:21 PM -23.4450 -46.4210 162° South 209 241 4,700 1,833 Climbing FlightAware ADS-B
Sat 05:45:47 PM -23.4590 -46.4240 191° South 218 251 5,300 1,895 Climbing FlightAware ADS-B
Sat 05:45:59 PM -23.4670 -46.4330 226° Southwest 208 239 5,900 3,000 Climbing FlightAware ADS-B
Sat 05:46:25 PM -23.4810 -46.4540 234° Southwest 206 237 7,200 2,842 Climbing FlightAware ADS-B
Sat 05:46:56 PM -23.5130 -46.4980 232° Southwest 263 303 8,600 2,182 Climbing FlightAware ADS-B
Sat 05:47:31 PM -23.5410 -46.5350 230° Southwest 284 327 9,600 2,080 Climbing FlightAware ADS-B
Sat 05:48:11 PM -23.5760 -46.5830 231° Southwest 318 366 11,200 3,108 Climbing FlightAware ADS-B
Sat 05:48:54 PM -23.6180 -46.6410 232° Southwest 318 366 13,900 3,687 Climbing FlightAware ADS-B
Sat 05:49:34 PM -23.6600 -46.6850 224° Southwest 315 362 16,300 2,475 Climbing FlightAware ADS-B
Sat 05:50:14 PM -23.7070 -46.7300 221° Southwest 356 410 17,200 2,071 Climbing FlightAware ADS-B
Sat 05:50:58 PM -23.7610 -46.7820 221° Southwest 359 413 19,200 2,250 Climbing FlightAware ADS-B
Sat 05:51:42 PM -23.8170 -46.8360 221° Southwest 377 434 20,500 1,929 Climbing FlightAware ADS-B
Sat 05:52:22 PM -23.8660 -46.8840 222° Southwest 383 441 21,900 2,222 Climbing FlightAware ADS-B
Sat 05:53:03 PM -23.9250 -46.9400 221° Southwest 386 444 23,500 2,096 Climbing FlightAware ADS-B
Sat 05:53:45 PM -23.9800 -46.9940 222° Southwest 393 452 24,800 1,705 Climbing FlightAware ADS-B
Sat 05:54:31 PM -24.0450 -47.0570 222° Southwest 405 466 26,000 1,605 Climbing FlightAware ADS-B
Sat 05:55:11 PM -24.1020 -47.1130 222° Southwest 414 476 27,100 1,595 Climbing FlightAware ADS-B
Sat 05:55:50 PM -24.1570 -47.1660 221° Southwest 419 482 28,100 1,537 Climbing FlightAware ADS-B
Sat 05:56:33 PM -24.2210 -47.2280 221° Southwest 427 491 29,200 1,482 Climbing FlightAware ADS-B
Sat 05:57:15 PM -24.2840 -47.2900 222° Southwest 432 497 30,200 1,379 Climbing FlightAware ADS-B
Sat 05:58:00 PM -24.3500 -47.3540 221° Southwest 433 498 31,200 1,884 Climbing FlightAware ADS-B
Sat 05:58:41 PM -24.4110 -47.4140 222° Southwest 414 476 32,900 2,475 Climbing FlightAware ADS-B
Sat 05:59:20 PM -24.4660 -47.4680 222° Southwest 395 455 34,500 1,976 Climbing FlightAware ADS-B
Sat 06:00:06 PM -24.5290 -47.5300 222° Southwest 393 452 35,700 1,373 Climbing FlightAware ADS-B
Sat 06:00:43 PM -24.5750 -47.5760 222° Southwest 391 450 36,400 1,213 Climbing FlightAware ADS-B
Sat 06:01:40 PM -24.6550 -47.6550 222° Southwest 387 445 37,600 980 Climbing FlightAware ADS-B
Sat 06:02:21 PM -24.7090 -47.7080 222° Southwest 376 433 38,000 300 Climbing FlightAware ADS-B
Sat 06:03:00 PM -24.7610 -47.7590 222° Southwest 379 436 38,000  Level FlightAware ADS-B
Sat 06:03:41 PM -24.8150 -47.8130 222° Southwest 379 436 38,000  Level FlightAware ADS-B
Sat 06:04:26 PM -24.8750 -47.8710 221° Southwest 385 443 38,000  Level FlightAware ADS-B
Sat 06:05:10 PM -24.9330 -47.9290 222° Southwest 386 444 38,000  Level FlightAware ADS-B
Sat 06:05:49 PM -24.9870 -47.9820 222° Southwest 385 443 38,000  Level FlightAware ADS-B
Sat 06:06:33 PM -25.0440 -48.0390 222° Southwest 384 442 38,000  Level FlightAware ADS-B
Sat 06:07:15 PM -25.1000 -48.0950 222° Southwest 382 440 38,000  Level FlightAware ADS-B
Sat 06:07:51 PM -25.1460 -48.1410 222° Southwest 381 438 38,000  Level FlightAware ADS-B
Sat 06:08:38 PM -25.2090 -48.2030 222° Southwest 380 437 38,000  Level FlightAware ADS-B
Sat 06:09:22 PM -25.2650 -48.2600 223° Southwest 380 437 38,000  Level FlightAware ADS-B
Sat 06:10:17 PM -25.3380 -48.3320 222° Southwest 380 437 38,000  Level FlightAware ADS-B
Sat 06:10:58 PM -25.3900 -48.3850 223° Southwest 380 437 38,000  Level FlightAware ADS-B
Sat 06:11:41 PM -25.4470 -48.4420 222° Southwest 382 440 38,000  Level FlightAware ADS-B
Sat 06:12:22 PM -25.5020 -48.4970 222° Southwest 382 440 38,000  Level FlightAware ADS-B
Sat 06:13:05 PM -25.5600 -48.5520 221° Southwest 389 448 38,000  Level FlightAware ADS-B
Sat 06:13:42 PM -25.6070 -48.5930 218° Southwest 389 448 38,000  Level FlightAware ADS-B
Sat 06:14:25 PM -25.6720 -48.6510 219° Southwest 390 449 38,000  Level FlightAware ADS-B
Sat 06:15:05 PM -25.7270 -48.7000 219° Southwest 392 451 38,000  Level FlightAware ADS-B
Sat 06:15:52 PM -25.7940 -48.7590 218° Southwest 392 451 38,000  Level FlightAware ADS-B
Sat 06:16:36 PM -25.8560 -48.8140 219° Southwest 394 453 38,000  Level FlightAware ADS-B
Sat 06:17:14 PM -25.9090 -48.8620 219° Southwest 395 455 38,000  Level FlightAware ADS-B
Sat 06:17:58 PM -25.9740 -48.9200 219° Southwest 399 459 38,000  Level FlightAware ADS-B
Sat 06:18:40 PM -26.0340 -48.9740 219° Southwest 401 461 38,000  Level FlightAware ADS-B
Sat 06:19:20 PM -26.0920 -49.0270 219° Southwest 400 460 38,000  Level FlightAware ADS-B
Sat 06:20:06 PM -26.1580 -49.0860 219° Southwest 399 459 38,000  Level FlightAware ADS-B
Sat 06:20:44 PM -26.2130 -49.1360 219° Southwest 397 457 38,000  Level FlightAware ADS-B
Sat 06:21:25 PM -26.2720 -49.1880 218° Southwest 398 458 38,000  Level FlightAware ADS-B
Sat 06:22:10 PM -26.3320 -49.2420 219° Southwest 398 458 38,000  Level FlightAware ADS-B
Sat 06:22:54 PM -26.3990 -49.3030 219° Southwest 397 457 38,000  Level FlightAware ADS-B
Sat 06:23:34 PM -26.4570 -49.3550 219° Southwest 397 457 38,000  Level FlightAware ADS-B
Sat 06:24:14 PM -26.5130 -49.4060 219° Southwest 399 459 38,000  Level FlightAware ADS-B
Sat 06:24:57 PM -26.5750 -49.4620 219° Southwest 400 460 38,000  Level FlightAware ADS-B
Sat 06:25:56 PM -26.6600 -49.5400 219° Southwest 402 463 38,000  Level FlightAware ADS-B
Sat 06:26:38 PM -26.7210 -49.5950 219° Southwest 403 464 38,000  Level FlightAware ADS-B
Sat 06:27:20 PM -26.7830 -49.6510 219° Southwest 403 464 38,000  Level FlightAware ADS-B
Sat 06:28:16 PM -26.8610 -49.7230 219° Southwest 403 464 38,000  Level FlightAware ADS-B
Sat 06:28:51 PM -26.9130 -49.7700 219° Southwest 403 464 38,000  Level FlightAware ADS-B
Sat 06:29:36 PM -26.9770 -49.8290 219° Southwest 403 464 38,000  Level FlightAware ADS-B
Sat 06:30:16 PM -27.0330 -49.8800 219° Southwest 402 463 38,000  Level FlightAware ADS-B
Sat 06:31:01 PM -27.0990 -49.9400 219° Southwest 401 461 38,000  Level FlightAware ADS-B
Sat 06:31:40 PM -27.1550 -49.9920 220° Southwest 403 464 38,000  Level FlightAware ADS-B
Sat 06:32:21 PM -27.2140 -50.0460 219° Southwest 403 464 38,000  Level FlightAware ADS-B
Sat 06:33:01 PM -27.2670 -50.0950 219° Southwest 404 465 38,000  Level FlightAware ADS-B
Sat 06:33:52 PM -27.3480 -50.1700 219° Southwest 405 466 38,000  Level FlightAware ADS-B
Sat 06:34:34 PM -27.4070 -50.2250 220° Southwest 406 467 38,000  Level FlightAware ADS-B
Sat 06:35:26 PM -27.4820 -50.2950 220° Southwest 406 467 38,000  Level FlightAware ADS-B
Sat 06:36:12 PM -27.5520 -50.3590 219° Southwest 408 470 38,000  Level FlightAware ADS-B
Sat 06:36:45 PM -27.5980 -50.4020 220° Southwest 409 471 38,000  Level FlightAware ADS-B
Sat 06:37:30 PM -27.6640 -50.4630 219° Southwest 409 471 38,000  Level FlightAware ADS-B
Sat 06:38:16 PM -27.7320 -50.5270 220° Southwest 411 473 38,000  Level FlightAware ADS-B
Sat 06:39:00 PM -27.7970 -50.5870 219° Southwest 412 474 38,000  Level FlightAware ADS-B
Sat 06:39:40 PM -27.8560 -50.6420 219° Southwest 411 473 38,000  Level FlightAware ADS-B
Sat 06:40:23 PM -27.9170 -50.7000 220° Southwest 411 473 38,000  Level FlightAware ADS-B
Sat 06:41:02 PM -27.9750 -50.7540 219° Southwest 411 473 38,000  Level FlightAware ADS-B
Sat 06:41:46 PM -28.0400 -50.8140 219° Southwest 411 473 38,000  Level FlightAware ADS-B
Sat 06:42:28 PM -28.1010 -50.8720 220° Southwest 413 475 38,000  Level FlightAware ADS-B
Sat 06:43:10 PM -28.1630 -50.9310 220° Southwest 413 475 38,000  Level FlightAware ADS-B
Sat 06:43:54 PM -28.2280 -50.9920 220° Southwest 415 478 38,000  Level FlightAware ADS-B
Sat 06:44:36 PM -28.2900 -51.0510 220° Southwest 416 479 38,000  Level FlightAware ADS-B
Sat 06:45:16 PM -28.3490 -51.1070 220° Southwest 417 480 38,000  Level FlightAware ADS-B
Sat 06:45:57 PM -28.4090 -51.1630 219° Southwest 416 479 38,000  Level FlightAware ADS-B
Sat 06:46:41 PM -28.4750 -51.2260 220° Southwest 417 480 38,000  Level FlightAware ADS-B
Sat 06:47:20 PM -28.5340 -51.2820 220° Southwest 419 482 38,000  Level FlightAware ADS-B
Sat 06:48:05 PM -28.5950 -51.3400 220° Southwest 420 483 38,000  Level FlightAware ADS-B
Sat 06:48:44 PM -28.6580 -51.4000 220° Southwest 420 483 38,000  Level FlightAware ADS-B
Sat 06:49:29 PM -28.7250 -51.4640 220° Southwest 419 482 38,000  Level FlightAware ADS-B
Sat 06:50:12 PM -28.7890 -51.5250 220° Southwest 417 480 38,000  Level FlightAware ADS-B
Sat 06:50:54 PM -28.8500 -51.5850 221° Southwest 416 479 38,000  Level FlightAware ADS-B
Sat 06:51:35 PM -28.9110 -51.6430 220° Southwest 416 479 38,000  Level FlightAware ADS-B
Sat 06:52:18 PM -28.9740 -51.7040 220° Southwest 417 480 38,000  Level FlightAware ADS-B
Sat 06:52:59 PM -29.0350 -51.7620 220° Southwest 417 480 38,000  Level FlightAware ADS-B
Sat 06:53:41 PM -29.0970 -51.8220 220° Southwest 417 480 38,000  Level FlightAware ADS-B
Sat 06:54:19 PM -29.1540 -51.8760 220° Southwest 418 481 38,000  Level FlightAware ADS-B
Sat 06:55:02 PM -29.2140 -51.9350 221° Southwest 419 482 38,000  Level FlightAware ADS-B
Sat 06:55:46 PM -29.2810 -52.0000 220° Southwest 420 483 38,000  Level FlightAware ADS-B
Sat 06:56:26 PM -29.3400 -52.0580 221° Southwest 419 482 38,000  Level FlightAware ADS-B
Sat 06:57:12 PM -29.4060 -52.1220 220° Southwest 418 481 38,000  Level FlightAware ADS-B
Sat 06:57:52 PM -29.4680 -52.1820 220° Southwest 418 481 38,000  Level FlightAware ADS-B
Sat 06:58:37 PM -29.5330 -52.2450 220° Southwest 419 482 38,000  Level FlightAware ADS-B
Sat 06:59:17 PM -29.5930 -52.3050 221° Southwest 418 481 38,000  Level FlightAware ADS-B
Sat 07:00:02 PM -29.6580 -52.3680 220° Southwest 417 480 38,000  Level FlightAware ADS-B
Sat 07:00:42 PM -29.7150 -52.4240 220° Southwest 416 479 38,000  Level FlightAware ADS-B
Sat 07:01:22 PM -29.7730 -52.4810 220° Southwest 416 479 38,000  Level FlightAware ADS-B
Sat 07:02:06 PM -29.8220 -52.5290 220° Southwest 416 479 38,000  Level FlightAware ADS-B
Sat 07:02:46 PM -29.8740 -52.5810 221° Southwest 418 481 38,000  Level FlightAware ADS-B
Sat 07:03:27 PM -29.9550 -52.6610 221° Southwest 418 481 38,000  Level FlightAware ADS-B
Sat 07:04:08 PM -30.0180 -52.7230 220° Southwest 419 482 38,000  Level FlightAware ADS-B
Sat 07:04:53 PM -30.0850 -52.7900 221° Southwest 420 483 38,000  Level FlightAware ADS-B
Sat 07:05:48 PM -30.1650 -52.8690 220° Southwest 421 484 38,000  Level FlightAware ADS-B
Sat 07:06:28 PM -30.2260 -52.9300 221° Southwest 423 487 38,000  Level FlightAware ADS-B
Sat 07:07:13 PM -30.2940 -52.9970 220° Southwest 423 487 38,000  Level FlightAware ADS-B
Sat 07:07:53 PM -30.3500 -53.0540 221° Southwest 422 486 38,000  Level FlightAware ADS-B
Sat 07:08:39 PM -30.4190 -53.1230 221° Southwest 421 484 38,000  Level FlightAware ADS-B
Sat 07:09:18 PM -30.4770 -53.1810 221° Southwest 421 484 38,000  Level FlightAware ADS-B
Sat 07:10:03 PM -30.5440 -53.2480 221° Southwest 421 484 38,000  Level FlightAware ADS-B
Sat 07:10:43 PM -30.6020 -53.3070 221° Southwest 422 486 38,000  Level FlightAware ADS-B
Sat 07:11:33 PM -30.6770 -53.3820 221° Southwest 423 487 38,000  Level FlightAware ADS-B
Sat 07:12:14 PM -30.7330 -53.4380 221° Southwest 423 487 38,000  Level FlightAware ADS-B
Sat 07:12:58 PM -30.8020 -53.5080 221° Southwest 424 488 38,000  Level FlightAware ADS-B
Sat 07:13:38 PM -30.8610 -53.5680 221° Southwest 423 487 38,000  Level FlightAware ADS-B
Sat 07:14:24 PM -30.9290 -53.6370 221° Southwest 425 489 38,000  Level FlightAware ADS-B
Sat 07:15:03 PM -30.9880 -53.6970 221° Southwest 423 487 38,000  Level FlightAware ADS-B
Sat 07:15:47 PM -31.0520 -53.7620 221° Southwest 420 483 38,000  Level FlightAware ADS-B
Sat 07:16:27 PM -31.1110 -53.8220 221° Southwest 420 483 38,000  Level FlightAware ADS-B
Sat 07:17:05 PM -31.1670 -53.8790 221° Southwest 421 484 38,000  Level FlightAware ADS-B
Sat 07:17:51 PM -31.2340 -53.9480 221° Southwest 423 487 38,000  Level FlightAware ADS-B
Sat 07:18:35 PM -31.2990 -54.0150 221° Southwest 425 489 38,000  Level FlightAware ADS-B
Sat 07:19:13 PM -31.3540 -54.0710 221° Southwest 425 489 38,000  Level FlightAware ADS-B
Sat 07:19:55 PM -31.4150 -54.1370 223° Southwest 422 486 38,000  Level FlightAware ADS-B
Sat 07:20:38 PM -31.4690 -54.2010 225° Southwest 420 483 38,000  Level FlightAware ADS-B
Sat 07:21:23 PM -31.5330 -54.2770 225° Southwest 418 481 38,000  Level FlightAware ADS-B
Sat 07:22:01 PM -31.5780 -54.3280 224° Southwest 418 481 38,000  Level FlightAware ADS-B
Sat 07:22:48 PM -31.6320 -54.3930 226° Southwest 418 481 38,000  Level FlightAware ADS-B
Sat 07:23:24 PM -31.6740 -54.4420 225° Southwest 418 481 38,000  Level FlightAware ADS-B
Sat 07:24:12 PM -31.7300 -54.5070 225° Southwest 418 481 38,000  Level FlightAware ADS-B
Sat 07:24:49 PM -31.7730 -54.5580 225° Southwest 418 481 38,000  Level FlightAware ADS-B
Sat 07:25:27 PM -31.8170 -54.6100 225° Southwest 418 481 38,000  Level FlightAware ADS-B
Sat 07:26:15 PM -31.8730 -54.6760 225° Southwest 418 481 38,000  Level FlightAware ADS-B
Sat 07:26:52 PM -31.9160 -54.7260 225° Southwest 418 481 38,000  Level FlightAware ADS-B
Sat 07:27:40 PM -31.9720 -54.7920 225° Southwest 418 481 38,000  Level FlightAware ADS-B
Sat 07:28:16 PM -32.0130 -54.8410 225° Southwest 418 481 38,000  Level FlightAware ADS-B
Sat 07:29:05 PM -32.0700 -54.9090 225° Southwest 418 481 38,000  Level FlightAware ADS-B
Sat 07:29:41 PM -32.1120 -54.9580 225° Southwest 418 481 38,000  Level FlightAware ADS-B
Sat 07:31:51 PM -32.3950 -55.3080 226° Southwest 417 480 38,000  Level FlightAware ADS-B
Sat 07:32:31 PM -32.4450 -55.3680 225° Southwest 415 478 38,000  Level FlightAware ADS-B
Sat 07:33:15 PM -32.5040 -55.4410 226° Southwest 414 476 38,000  Level FlightAware ADS-B
Sat 07:34:06 PM -32.5710 -55.5230 226° Southwest 415 478 38,000  Level FlightAware ADS-B
Sat 07:34:47 PM -32.6270 -55.5910 226° Southwest 415 478 38,000  Level FlightAware ADS-B
Sat 07:35:33 PM -32.6930 -55.6720 226° Southwest 415 478 38,000  Level FlightAware ADS-B
Sat 07:36:31 PM -32.7680 -55.7640 226° Southwest 414 476 38,000  Level FlightAware ADS-B
Sat 07:37:27 PM -32.8430 -55.8570 226° Southwest 415 478 38,000  Level FlightAware ADS-B
Sat 07:38:08 PM -32.8940 -55.9190 226° Southwest 415 478 38,000  Level FlightAware ADS-B
Sat 07:38:47 PM -32.9470 -55.9850 226° Southwest 415 478 38,000  Level FlightAware ADS-B
Sat 07:39:33 PM -33.0120 -56.0650 226° Southwest 414 476 38,000  Level FlightAware ADS-B
Sat 07:40:09 PM -33.0560 -56.1200 226° Southwest 414 476 38,000  Level FlightAware ADS-B
Sat 07:40:57 PM -33.1210 -56.2010 226° Southwest 414 476 38,000  Level FlightAware ADS-B
Sat 07:41:36 PM -33.1670 -56.2580 226° Southwest 413 475 38,000  Level FlightAware ADS-B
Sat 07:42:18 PM -33.2280 -56.3350 227° Southwest 413 475 38,000  Level FlightAware ADS-B
Sat 07:42:58 PM -33.2790 -56.3990 226° Southwest 414 476 38,000  Level FlightAware ADS-B
Sat 07:43:41 PM -33.3390 -56.4730 226° Southwest 417 480 38,000  Level FlightAware ADS-B
Sat 07:44:26 PM -33.3950 -56.5420 226° Southwest 418 481 38,000 -1,187 Level FlightAware ADS-B
Sat 07:45:12 PM -33.4580 -56.6360 231° Southwest 431 496 36,200 -2,207 Descending FlightAware ADS-B
Sat 07:45:53 PM -33.5100 -56.7080 229° Southwest 414 476 34,800 -2,231 Descending FlightAware ADS-B
Sat 07:46:30 PM -33.5560 -56.7730 230° Southwest 405 466 33,300 -2,286 Descending FlightAware ADS-B
Sat 07:47:17 PM -33.6120 -56.8510 229° Southwest 398 458 31,600 -2,233 Descending FlightAware ADS-B
Sat 07:47:56 PM -33.6590 -56.9170 229° Southwest 394 453 30,100 -2,195 Descending FlightAware ADS-B
Sat 07:48:39 PM -33.7090 -56.9870 229° Southwest 389 448 28,600 -2,143 Descending FlightAware ADS-B
Sat 07:49:20 PM -33.7570 -57.0550 230° Southwest 385 443 27,100 -2,169 Descending FlightAware ADS-B
Sat 07:50:02 PM -33.8060 -57.1240 229° Southwest 380 437 25,600 -2,091 Descending FlightAware ADS-B
Sat 07:50:26 PM -33.8310 -57.1600 230° Southwest 377 434 24,800 -2,122 Descending FlightAware ADS-B
Sat 07:51:24 PM -33.8970 -57.2530 229° Southwest 371 427 22,700 -2,121 Descending FlightAware ADS-B
Sat 07:52:05 PM -33.9420 -57.3170 230° Southwest 366 421 21,300 -1,975 Descending FlightAware ADS-B
Sat 07:52:43 PM -33.9800 -57.3700 229° Southwest 362 417 20,100 -2,143 Descending FlightAware ADS-B
Sat 07:53:29 PM -34.0330 -57.4460 230° Southwest 352 405 18,300 -2,267 Descending FlightAware ADS-B
Sat 07:54:13 PM -34.0780 -57.5110 230° Southwest 340 391 16,700 -2,047 Descending FlightAware ADS-B
Sat 07:54:54 PM -34.1190 -57.5690 229° Southwest 331 381 15,400 -1,950 Descending FlightAware ADS-B
Sat 07:55:33 PM -34.1570 -57.6240 230° Southwest 323 372 14,100 -1,952 Descending FlightAware ADS-B
Sat 07:56:17 PM -34.1990 -57.6840 230° Southwest 315 362 12,700 -1,884 Descending FlightAware ADS-B
Sat 07:56:59 PM -34.2380 -57.7400 230° Southwest 310 357 11,400 -1,674 Descending FlightAware ADS-B
Sat 07:57:43 PM -34.2770 -57.7980 231° Southwest 301 346 10,300 -1,000 Descending FlightAware ADS-B
Sat 07:58:23 PM -34.3130 -57.8490 229° Southwest 286 329 10,000 -462 Descending FlightAware ADS-B
Sat 07:58:35 PM -34.3190 -57.8640 244° Southwest 283 326 9,900 -462 Descending FlightAware ADS-B
Sat 07:58:49 PM -34.3220 -57.8850 260° West 274 315 9,800 -400 Descending FlightAware ADS-B
Sat 07:59:05 PM -34.3220 -57.9110 270° West 272 313 9,700 -286 Descending FlightAware ADS-B
Sat 07:59:31 PM -34.3220 -57.9500 270° West 271 312 9,600 -414 Descending FlightAware ADS-B
Sat 08:00:03 PM -34.3230 -57.9970 269° West 270 311 9,300 -517 Descending FlightAware ADS-B
Sat 08:00:29 PM -34.3230 -58.0380 270° West 271 312 9,100 -556 Descending FlightAware ADS-B
Sat 08:00:57 PM -34.3240 -58.0800 268° West 272 313 8,800 -556 Descending FlightAware ADS-B
Sat 08:01:23 PM -34.3240 -58.1190 270° West 270 311 8,600 -429 Descending FlightAware ADS-B
Sat 08:01:53 PM -34.3240 -58.1650 270° West 267 307 8,400 -429 Descending FlightAware ADS-B
Sat 08:02:19 PM -34.3250 -58.2030 268° West 267 307 8,200 -444 Descending FlightAware ADS-B
Sat 08:02:47 PM -34.3250 -58.2450 270° West 266 306 8,000 -517 Descending FlightAware ADS-B
Sat 08:03:17 PM -34.3250 -58.2900 270° West 264 304 7,700 -571 Descending FlightAware ADS-B
Sat 08:03:29 PM -34.3280 -58.3070 258° West 270 311 7,600 -429 Descending FlightAware ADS-B
Sat 08:03:45 PM -34.3400 -58.3260 233° Southwest 281 323 7,500 -409 Descending FlightAware ADS-B
Sat 08:04:13 PM -34.3680 -58.3550 221° Southwest 282 325 7,300 -536 Descending FlightAware ADS-B
Sat 08:04:41 PM -34.3960 -58.3830 220° Southwest 280 322 7,000 -536 Descending FlightAware ADS-B
Sat 08:05:09 PM -34.4230 -58.4110 221° Southwest 280 322 6,800 -444 Descending FlightAware ADS-B
Sat 08:05:35 PM -34.4480 -58.4380 222° Southwest 279 321 6,600 -536 Descending FlightAware ADS-B
Sat 08:06:05 PM -34.4780 -58.4700 221° Southwest 279 321 6,300 -522 Descending FlightAware ADS-B
Sat 08:06:21 PM -34.4930 -58.4860 221° Southwest 278 320 6,200 -409 Descending FlightAware ADS-B
Sat 08:06:49 PM -34.5210 -58.5150 220° Southwest 275 316 6,000 -750 Descending FlightAware ADS-B
Sat 08:07:17 PM -34.5500 -58.5400 215° Southwest 285 328 5,500 -1,263 Descending FlightAware ADS-B
Sat 08:07:27 PM -34.5630 -58.5420 187° South 293 337 5,200 -1,588 Descending FlightAware ADS-B
Sat 08:07:51 PM -34.5930 -58.5280 159° South 300 345 4,600 -1,256 Descending FlightAware ADS-B
Sat 08:08:10 PM -34.6030 -58.5110 126° Southeast 294 338 4,300 -909 Descending FlightAware ADS-B
Sat 08:08:24 PM -34.6070 -58.5000 114° Southeast 292 336 4,100 -1,395 Descending FlightAware ADS-B
Sat 08:08:53 PM -34.6300 -58.4390 115° Southeast 279 321 3,300 -1,158 Descending FlightAware ADS-B
Sat 08:09:21 PM -34.6460 -58.4010 117° Southeast 261 300 3,000 -360 Descending FlightAware ADS-B
Sat 08:09:43 PM -34.6570 -58.3730 116° Southeast 241 277 3,000 -111 Level FlightAware ADS-B
Sat 08:10:15 PM -34.6720 -58.3370 117° Southeast 215 247 2,900 -375 Descending FlightAware ADS-B
Sat 08:10:31 PM -34.6770 -58.3190 109° East 204 235 2,700 -533 Descending FlightAware ADS-B
Sat 08:11:00 PM -34.6670 -58.2940 64° Northeast 168 193 2,500 -656 Descending FlightAware ADS-B
Sat 08:11:35 PM -34.6420 -58.2870 13° North 154 177 2,000 -484 Descending FlightAware ADS-B
Sat 08:12:02 PM -34.6260 -58.2950 338° Northwest 157 181 2,000 -222 Level FlightAware ADS-B
Sat 08:12:29 PM -34.6160 -58.3140 303° West 144 166 1,800 -556 Descending FlightAware ADS-B
Sat 08:12:56 PM -34.6060 -58.3310 306° West 128 147 1,500 -750 Descending FlightAware ADS-B
Sat 08:13:25 PM -34.5970 -58.3470 304° West 122 140 1,100 -750 Descending FlightAware ADS-B
Sat 08:13:52 PM -34.5880 -58.3630 304° West 121 139 800 -643 Descending FlightAware ADS-B
Sat 08:14:21 PM -34.5790 -58.3800 303° West 121 139 500 -353 Descending FlightAware ADS-B
Sat 08:15:00 PM -34.5680 -58.4000 304° West 123 142 400 -154 Descending FlightAware ADS-B
Sat 08:17:00 PM -34.5592 -58.4156 304° West  Level Estimated
Sat 08:18:00 PM -34.5592 -58.4156 147° Southeast  Level Estimated
Sat 08:19:00 PM -34.5592 -58.4156 33° Northeast  Level Estimated

Login

Don't have an account? Register now (free) for customized features, flight alerts, and more!